Time;durP1;ratioP1;P1;durP2;ratioP2;P2;SDS_P1;SDS_P2;PMS_P1;PMS_P2;Temp;Humidity;BMP_temperature;BMP_pressure;BME280_temperature;BME280_humidity;BME280_pressure;Samples;Min_cycle;Max_cycle;Signal;HPM_P1;HPM_P2
2022/05/15 00:01:13;;;;;;;5.87;4.70;;;23.20;64.40;;;;;;4956891;29;20771;-72
2022/05/15 00:03:44;;;;;;;5.67;4.57;;;23.20;64.50;;;;;;4956941;29;20483;-72
2022/05/15 00:06:14;;;;;;;6.50;4.30;;;23.20;64.60;;;;;;4957462;28;20431;-72
2022/05/15 00:08:42;;;;;;;6.67;3.87;;;23.10;64.50;;;;;;4958545;28;20445;-71
2022/05/15 00:11:18;;;;;;;6.13;4.63;;;23.10;64.50;;;;;;4974926;28;20489;-72
2022/05/15 00:13:46;;;;;;;6.97;3.90;;;23.10;64.50;;;;;;4974831;28;20438;-72
2022/05/15 00:16:17;;;;;;;9.33;5.03;;;23.10;64.60;;;;;;4974897;28;20934;-72
2022/05/15 00:18:50;;;;;;;6.50;4.80;;;23.00;64.50;;;;;;4958233;28;20567;-72
2022/05/15 00:21:17;;;;;;;6.83;4.60;;;23.00;64.60;;;;;;4975588;28;20934;-72
2022/05/15 00:23:49;;;;;;;5.17;4.63;;;23.00;64.60;;;;;;4974642;28;20411;-72
2022/05/15 00:26:18;;;;;;;8.17;4.20;;;23.00;64.60;;;;;;4958672;28;20406;-71
2022/05/15 00:28:45;;;;;;;10.13;4.40;;;22.90;64.60;;;;;;4974842;28;20876;-71
2022/05/15 00:31:13;;;;;;;9.00;4.80;;;22.90;64.60;;;;;;4975024;28;20430;-71
2022/05/15 00:33:44;;;;;;;6.93;4.17;;;22.90;64.60;;;;;;4958799;28;20485;-71
2022/05/15 00:36:10;;;;;;;5.90;4.60;;;22.90;64.60;;;;;;4975984;28;20407;-71
2022/05/15 00:38:36;;;;;;;7.83;4.80;;;22.90;64.70;;;;;;4975168;28;20465;-71
2022/05/15 00:41:05;;;;;;;6.80;4.53;;;22.90;64.70;;;;;;4958787;28;20394;-71
2022/05/15 00:43:50;;;;;;;6.30;4.83;;;22.90;64.70;;;;;;4958900;28;20484;-71
2022/05/15 00:46:18;;;;;;;4.80;4.13;;;22.80;64.70;;;;;;4942876;28;20418;-71
2022/05/15 00:48:52;;;;;;;8.80;5.40;;;22.80;65.60;;;;;;4974876;28;20438;-71
2022/05/15 00:51:31;;;;;;;4.80;4.30;;;22.80;64.70;;;;;;4958929;28;20438;-71
2022/05/15 00:54:06;;;;;;;5.17;4.13;;;22.80;64.80;;;;;;4974730;28;20408;-71
2022/05/15 00:56:40;;;;;;;6.73;5.13;;;22.80;64.90;;;;;;4942656;28;20982;-71
2022/05/15 00:59:24;;;;;;;4.60;4.07;;;22.70;64.70;;;;;;4974688;28;20457;-71
2022/05/15 01:01:50;;;;;;;6.57;4.77;;;22.70;64.70;;;;;;4958360;28;20978;-71
2022/05/15 01:04:20;;;;;;;6.10;4.63;;;22.70;64.70;;;;;;4974797;28;20413;-71
2022/05/15 01:06:51;;;;;;;5.20;4.27;;;22.60;64.70;;;;;;4969636;28;20900;-71
2022/05/15 01:09:20;;;;;;;6.30;4.60;;;22.60;64.80;;;;;;4939147;29;20439;-71
2022/05/15 01:11:49;;;;;;;9.93;4.70;;;22.60;64.80;;;;;;4956171;29;20777;-71
2022/05/15 01:14:18;;;;;;;4.73;4.20;;;22.60;64.80;;;;;;4954974;29;20435;-71
2022/05/15 01:16:50;;;;;;;5.17;4.57;;;22.60;64.80;;;;;;4955072;29;20435;-71
2022/05/15 01:19:26;;;;;;;5.47;4.53;;;22.50;64.70;;;;;;4954802;29;20458;-71
2022/05/15 01:21:58;;;;;;;5.23;4.40;;;22.50;64.70;;;;;;4954978;29;20430;-71
2022/05/15 01:24:26;;;;;;;6.80;4.30;;;22.50;64.70;;;;;;4939144;29;20411;-71
2022/05/15 01:26:55;;;;;;;5.00;4.47;;;22.50;64.80;;;;;;4956015;29;20487;-72
2022/05/15 01:29:33;;;;;;;7.20;4.57;;;22.40;64.70;;;;;;4938989;29;20447;-71
2022/05/15 01:32:00;;;;;;;5.30;4.37;;;22.40;64.80;;;;;;4938642;29;20790;-72
2022/05/15 01:34:32;;;;;;;4.33;3.90;;;22.40;64.80;;;;;;4939082;29;20417;-72
2022/05/15 01:37:03;;;;;;;5.43;4.37;;;22.40;64.90;;;;;;4954606;29;20954;-71
2022/05/15 01:39:32;;;;;;;6.30;4.60;;;22.40;64.90;;;;;;5042519;23;20528;-70
2022/05/15 01:42:00;;;;;;;6.90;4.73;;;22.40;64.90;;;;;;4973722;28;20426;-70
2022/05/15 01:44:29;;;;;;;5.60;4.50;;;22.30;64.80;;;;;;4973868;28;20510;-70
2022/05/15 01:46:58;;;;;;;8.73;5.67;;;22.30;64.80;;;;;;4957724;28;20413;-70
2022/05/15 01:49:24;;;;;;;6.43;4.23;;;22.30;64.90;;;;;;4986916;28;20796;-70
2022/05/15 01:51:51;;;;;;;7.13;4.50;;;22.30;64.90;;;;;;4953904;28;20419;-70
2022/05/15 01:54:20;;;;;;;7.27;4.80;;;22.30;65.70;;;;;;4954565;28;20420;-70
2022/05/15 01:56:46;;;;;;;6.10;4.47;;;22.20;65.70;;;;;;4954521;28;20404;-70
2022/05/15 01:59:15;;;;;;;6.70;4.70;;;22.20;64.90;;;;;;4954407;28;20447;-70
2022/05/15 02:01:43;;;;;;;6.80;4.57;;;22.20;64.90;;;;;;4970208;28;20423;-70
2022/05/15 02:04:09;;;;;;;5.70;4.40;;;22.20;64.90;;;;;;4970306;28;20405;-70
2022/05/15 02:06:40;;;;;;;6.47;4.53;;;22.10;64.80;;;;;;4970359;28;20406;-70
2022/05/15 02:09:11;;;;;;;5.60;4.77;;;22.10;64.90;;;;;;4969958;28;20481;-70
2022/05/15 02:11:44;;;;;;;4.73;4.27;;;22.10;65.80;;;;;;4969992;28;20498;-70
2022/05/15 02:14:11;;;;;;;6.50;5.37;;;22.10;65.00;;;;;;4970178;28;20431;-70
2022/05/15 02:16:39;;;;;;;6.33;4.30;;;22.10;65.00;;;;;;4970232;28;20439;-70
2022/05/15 02:19:09;;;;;;;5.00;4.47;;;22.10;65.10;;;;;;4953603;28;20513;-70
2022/05/15 02:21:35;;;;;;;4.93;4.20;;;22.00;65.00;;;;;;4970086;28;20408;-70
2022/05/15 02:24:03;;;;;;;6.40;4.47;;;22.00;65.00;;;;;;4970169;28;20526;-70
2022/05/15 02:26:39;;;;;;;8.27;5.07;;;22.00;65.00;;;;;;4970297;28;20498;-70
2022/05/15 02:29:08;;;;;;;4.53;4.03;;;22.00;65.10;;;;;;4938170;29;20454;-70
2022/05/15 02:31:35;;;;;;;5.57;4.60;;;22.00;65.10;;;;;;4970059;28;20944;-70
2022/05/15 02:34:06;;;;;;;5.50;4.33;;;22.00;65.20;;;;;;4954052;28;20415;-70
2022/05/15 02:36:33;;;;;;;7.23;5.13;;;21.90;65.10;;;;;;4969811;28;20422;-70
2022/05/15 02:38:59;;;;;;;6.77;4.77;;;21.90;65.00;;;;;;4954734;28;20485;-70
2022/05/15 02:41:26;;;;;;;8.83;4.30;;;21.90;65.10;;;;;;4986162;28;20404;-70
2022/05/15 02:43:59;;;;;;;4.87;4.27;;;21.90;65.10;;;;;;4969751;28;20450;-70
2022/05/15 02:46:29;;;;;;;10.00;4.73;;;21.90;65.20;;;;;;4985747;28;20897;-70
2022/05/15 02:51:41;;;;;;;5.93;4.97;;;21.80;65.10;;;;;;4986075;28;20411;-70
2022/05/15 02:54:07;;;;;;;7.40;4.70;;;21.80;65.10;;;;;;4986111;28;20783;-70
2022/05/15 02:56:35;;;;;;;7.13;4.50;;;21.80;65.10;;;;;;4985906;28;20414;-70
2022/05/15 02:59:01;;;;;;;6.90;5.50;;;21.80;65.20;;;;;;4954729;28;20477;-70
2022/05/15 03:01:30;;;;;;;6.07;4.73;;;21.80;65.20;;;;;;4954765;28;20508;-70
2022/05/15 03:03:58;;;;;;;5.40;4.77;;;21.70;65.00;;;;;;4970583;28;20414;-70
2022/05/15 03:06:26;;;;;;;5.67;4.60;;;21.70;65.10;;;;;;4989360;28;20414;-70
2022/05/15 03:08:54;;;;;;;6.40;5.07;;;21.70;65.00;;;;;;4957586;29;20998;-71
2022/05/15 03:11:20;;;;;;;4.63;4.23;;;21.70;65.10;;;;;;4989717;28;20457;-71
2022/05/15 03:13:47;;;;;;;7.07;5.10;;;21.60;65.00;;;;;;4958579;28;20903;-70
2022/05/15 03:16:20;;;;;;;4.83;4.33;;;21.60;65.10;;;;;;4989321;28;20402;-70
2022/05/15 03:18:49;;;;;;;5.40;4.90;;;21.60;65.10;;;;;;4973168;28;20487;-70
2022/05/15 03:21:31;;;;;;;4.60;4.20;;;21.60;65.10;;;;;;4989591;28;20415;-70
2022/05/15 03:24:07;;;;;;;5.03;4.50;;;21.60;65.10;;;;;;4958333;28;20450;-70
2022/05/15 03:26:36;;;;;;;4.20;3.87;;;21.50;65.00;;;;;;4989400;28;20423;-70
2022/05/15 03:29:03;;;;;;;4.73;4.23;;;21.50;65.00;;;;;;4958382;28;20445;-70
2022/05/15 03:31:35;;;;;;;5.77;4.27;;;21.50;65.10;;;;;;4973277;28;20439;-71
2022/05/15 03:34:02;;;;;;;5.70;4.43;;;21.50;65.10;;;;;;4973108;28;20419;-71
2022/05/15 03:36:31;;;;;;;7.03;4.20;;;21.40;65.10;;;;;;4988864;28;20966;-71
2022/05/15 03:38:57;;;;;;;4.80;4.10;;;21.40;65.10;;;;;;4989016;28;20475;-71
2022/05/15 03:41:27;;;;;;;6.03;4.53;;;21.40;65.10;;;;;;4988501;28;20437;-71
2022/05/15 03:43:54;;;;;;;4.57;4.17;;;21.40;65.10;;;;;;4957027;29;20787;-71
2022/05/15 03:46:20;;;;;;;4.93;4.43;;;21.40;65.10;;;;;;4973062;28;20853;-71
2022/05/15 03:48:48;;;;;;;6.27;4.63;;;21.30;65.00;;;;;;4957667;28;20460;-70
2022/05/15 03:51:16;;;;;;;6.07;4.40;;;21.30;65.00;;;;;;4972881;28;20426;-70
2022/05/15 03:53:42;;;;;;;4.90;4.40;;;21.30;65.80;;;;;;4972892;28;20866;-70
2022/05/15 03:56:13;;;;;;;5.03;4.13;;;21.30;65.00;;;;;;4988551;28;20427;-70
2022/05/15 03:58:39;;;;;;;5.73;4.53;;;21.30;65.00;;;;;;4988751;28;20470;-71
2022/05/15 04:01:08;;;;;;;6.17;4.50;;;21.20;64.90;;;;;;4988251;28;20423;-70
2022/05/15 04:03:36;;;;;;;5.30;4.47;;;21.20;64.90;;;;;;4972567;28;20403;-70
2022/05/15 04:06:05;;;;;;;5.23;3.70;;;21.20;64.90;;;;;;4972777;28;20848;-70
2022/05/15 04:08:31;;;;;;;7.10;4.67;;;21.20;65.70;;;;;;4988610;28;20504;-70
2022/05/15 04:10:57;;;;;;;4.67;4.07;;;21.20;64.90;;;;;;4988636;28;20431;-70
2022/05/15 04:13:23;;;;;;;6.10;4.30;;;21.20;64.90;;;;;;4957428;28;20923;-70
2022/05/15 04:15:51;;;;;;;6.97;4.97;;;21.10;64.80;;;;;;4956712;28;20529;-70
2022/05/15 04:18:18;;;;;;;7.33;4.60;;;21.10;64.90;;;;;;4972123;28;20438;-70
2022/05/15 04:20:46;;;;;;;4.67;4.27;;;21.10;64.90;;;;;;4988468;28;20766;-70
2022/05/15 04:23:14;;;;;;;5.87;4.20;;;21.10;64.90;;;;;;4972303;28;20431;-70
2022/05/15 04:25:42;;;;;;;5.03;4.57;;;21.10;64.90;;;;;;4972337;28;20446;-70
2022/05/15 04:28:11;;;;;;;5.00;4.60;;;21.10;65.00;;;;;;4955673;29;20440;-70
2022/05/15 04:30:41;;;;;;;6.80;4.67;;;21.00;64.90;;;;;;4987919;28;20402;-70
2022/05/15 04:33:07;;;;;;;5.53;4.70;;;21.00;65.00;;;;;;4940072;29;20485;-70
2022/05/15 04:35:35;;;;;;;4.93;4.53;;;21.00;65.00;;;;;;4987656;28;20427;-70
2022/05/15 04:38:01;;;;;;;4.67;4.10;;;21.00;65.00;;;;;;4971772;28;20553;-70
2022/05/15 04:40:27;;;;;;;4.60;4.10;;;20.90;64.90;;;;;;4971887;28;20237;-70
2022/05/15 04:42:56;;;;;;;5.83;4.30;;;20.90;65.00;;;;;;4971792;28;20517;-70
2022/05/15 04:45:24;;;;;;;6.00;4.47;;;20.90;65.00;;;;;;4987784;28;20496;-70
2022/05/15 04:47:50;;;;;;;4.90;4.50;;;20.90;65.10;;;;;;4971902;28;20427;-70
2022/05/15 04:50:18;;;;;;;5.30;4.20;;;20.90;65.20;;;;;;4971716;28;20537;-70
2022/05/15 04:52:47;;;;;;;5.23;4.43;;;20.80;65.10;;;;;;4956690;28;20438;-70
2022/05/15 04:55:16;;;;;;;5.73;5.03;;;20.90;66.10;;;;;;4955571;29;20458;-70
2022/05/15 04:57:42;;;;;;;5.57;4.33;;;20.80;65.20;;;;;;4956541;28;20457;-70
2022/05/15 05:00:17;;;;;;;4.93;4.47;;;20.80;65.30;;;;;;4970350;28;20470;-71
2022/05/15 05:02:45;;;;;;;6.10;4.37;;;20.80;65.40;;;;;;4970360;28;20434;-71
2022/05/15 05:05:14;;;;;;;4.40;4.00;;;20.80;65.50;;;;;;4955534;28;20554;-69
2022/05/15 05:07:42;;;;;;;4.57;4.17;;;20.80;65.60;;;;;;4956000;28;20710;-71
2022/05/15 05:10:14;;;;;;;8.10;4.87;;;20.80;65.70;;;;;;4933721;29;20443;-71
2022/05/15 05:12:42;;;;;;;5.17;3.90;;;20.80;65.70;;;;;;4948612;29;20837;-71
2022/05/15 05:15:12;;;;;;;5.37;4.87;;;20.70;65.70;;;;;;4932812;29;20432;-71
2022/05/15 05:17:39;;;;;;;4.60;4.20;;;20.80;65.90;;;;;;4933905;29;20512;-70
2022/05/15 05:20:08;;;;;;;5.07;4.57;;;20.70;65.80;;;;;;4933471;29;20921;-70
2022/05/15 05:22:39;;;;;;;4.90;4.20;;;20.70;65.90;;;;;;4948377;29;20908;-71
2022/05/15 05:25:06;;;;;;;5.30;4.80;;;20.70;66.10;;;;;;4948615;29;20472;-71
2022/05/15 05:27:32;;;;;;;5.33;4.83;;;20.70;66.10;;;;;;4931778;29;20420;-71
2022/05/15 05:30:05;;;;;;;5.77;5.03;;;20.70;66.20;;;;;;4963364;28;21014;-71
2022/05/15 05:32:31;;;;;;;5.37;4.23;;;20.60;66.20;;;;;;4964489;28;20431;-71
2022/05/15 05:34:57;;;;;;;5.40;4.50;;;20.60;66.30;;;;;;4948153;29;20443;-71
2022/05/15 05:37:26;;;;;;;4.90;4.33;;;20.60;66.40;;;;;;4959058;28;20477;-71
2022/05/15 05:39:54;;;;;;;8.63;4.33;;;20.60;66.50;;;;;;4967310;28;20884;-71
2022/05/15 05:42:20;;;;;;;4.70;4.23;;;20.60;66.50;;;;;;4965115;28;20434;-71
2022/05/15 05:44:46;;;;;;;4.33;3.83;;;20.60;66.60;;;;;;4951090;28;20435;-71
2022/05/15 05:47:22;;;;;;;4.40;4.00;;;20.60;66.70;;;;;;4966811;28;20548;-71
2022/05/15 05:49:50;;;;;;;4.70;4.30;;;20.60;66.90;;;;;;4950989;29;20457;-71
2022/05/15 05:52:16;;;;;;;5.80;4.33;;;20.60;67.00;;;;;;4967093;28;20399;-71
2022/05/15 05:54:45;;;;;;;6.70;4.30;;;20.60;67.10;;;;;;4951038;29;20457;-71
2022/05/15 05:57:11;;;;;;;6.13;4.13;;;20.50;67.10;;;;;;4983140;28;20414;-71
2022/05/15 05:59:37;;;;;;;5.77;4.83;;;20.50;67.20;;;;;;4950910;29;20472;-71
2022/05/15 06:02:04;;;;;;;7.13;4.20;;;20.50;67.30;;;;;;4952069;28;20410;-71
2022/05/15 06:04:42;;;;;;;4.80;4.00;;;20.50;67.40;;;;;;4950561;29;20209;-71
2022/05/15 06:07:10;;;;;;;5.27;4.77;;;20.50;67.50;;;;;;4966334;28;20446;-71
2022/05/15 06:09:39;;;;;;;5.50;4.37;;;20.50;67.60;;;;;;4951281;29;20497;-71
2022/05/15 06:12:08;;;;;;;4.93;4.40;;;20.50;67.70;;;;;;4950908;29;20414;-71
2022/05/15 06:14:36;;;;;;;4.70;4.30;;;20.50;67.80;;;;;;4966732;28;20495;-71
2022/05/15 06:17:06;;;;;;;8.53;4.30;;;20.50;67.80;;;;;;4982622;28;20438;-71
2022/05/15 06:19:32;;;;;;;6.47;4.27;;;20.50;67.90;;;;;;4950632;29;20441;-71
2022/05/15 06:21:58;;;;;;;5.30;4.40;;;20.50;68.00;;;;;;4950760;29;20419;-71
2022/05/15 06:24:27;;;;;;;5.00;4.53;;;20.50;68.10;;;;;;4952263;28;20434;-71
2022/05/15 06:26:59;;;;;;;5.23;3.67;;;20.50;68.10;;;;;;4950657;29;20522;-71
2022/05/15 06:29:28;;;;;;;4.93;3.87;;;20.50;68.10;;;;;;4950400;28;20487;-71
2022/05/15 06:31:54;;;;;;;5.23;4.43;;;20.50;68.10;;;;;;4951422;28;20449;-71
2022/05/15 06:34:22;;;;;;;4.60;4.03;;;20.40;67.90;;;;;;4966749;28;20469;-70
2022/05/15 06:36:48;;;;;;;4.33;3.70;;;20.50;68.00;;;;;;4982444;28;20480;-71
2022/05/15 06:39:21;;;;;;;5.93;4.90;;;20.50;68.10;;;;;;4951194;28;21030;-70
2022/05/15 06:41:50;;;;;;;4.93;3.77;;;20.50;68.10;;;;;;4949441;28;20563;-71
2022/05/15 06:44:20;;;;;;;4.40;4.00;;;20.50;68.10;;;;;;4966160;28;20899;-71
2022/05/15 06:46:49;;;;;;;5.07;4.53;;;20.50;68.00;;;;;;4951729;28;20454;-71
2022/05/15 06:49:18;;;;;;;4.57;4.17;;;20.50;68.00;;;;;;4965732;28;20513;-71
2022/05/15 06:51:48;;;;;;;5.80;3.73;;;20.50;67.90;;;;;;4966010;28;20420;-71
2022/05/15 06:54:17;;;;;;;4.37;3.97;;;20.50;67.90;;;;;;4949709;29;20433;-71
2022/05/15 06:59:34;;;;;;;5.93;4.10;;;20.50;67.80;;;;;;4951119;29;20441;-71
2022/05/15 07:02:05;;;;;;;4.13;3.50;;;20.50;67.70;;;;;;4966121;28;20496;-71
2022/05/15 07:04:31;;;;;;;5.33;4.03;;;20.50;67.70;;;;;;4966125;28;20451;-71
2022/05/15 07:07:00;;;;;;;5.13;3.80;;;20.50;67.70;;;;;;4951178;28;20861;-71
2022/05/15 07:09:27;;;;;;;5.80;3.60;;;20.50;67.60;;;;;;4966120;28;20849;-71
2022/05/15 07:11:53;;;;;;;5.13;3.90;;;20.50;67.60;;;;;;4951330;28;20856;-71
2022/05/15 07:14:22;;;;;;;7.27;4.30;;;20.50;67.70;;;;;;4966428;28;20407;-71
2022/05/15 07:16:51;;;;;;;4.60;3.63;;;20.50;67.70;;;;;;4966304;28;20554;-71
2022/05/15 07:19:17;;;;;;;4.27;3.87;;;20.50;67.80;;;;;;4949797;29;20560;-71
2022/05/15 07:21:43;;;;;;;3.83;3.40;;;20.50;67.90;;;;;;4965792;28;20493;-71
2022/05/15 07:24:10;;;;;;;3.87;3.50;;;20.50;68.00;;;;;;4950120;29;20428;-71
2022/05/15 07:26:42;;;;;;;5.40;3.80;;;20.50;68.00;;;;;;4950047;29;20512;-71
2022/05/15 07:29:08;;;;;;;3.90;3.47;;;20.50;68.00;;;;;;4950033;29;21001;-71
2022/05/15 07:31:38;;;;;;;5.23;3.77;;;20.50;68.10;;;;;;4965704;28;20413;-71
2022/05/15 07:34:07;;;;;;;5.17;4.30;;;20.60;68.30;;;;;;4949708;29;20428;-71
2022/05/15 07:36:33;;;;;;;3.90;3.13;;;20.60;68.50;;;;;;4950108;29;20452;-71
2022/05/15 07:39:00;;;;;;;4.40;3.70;;;20.60;68.60;;;;;;4950334;29;20503;-71
2022/05/15 07:41:25;;;;;;;4.33;3.93;;;20.60;69.50;;;;;;4951012;28;20820;-71
2022/05/15 07:43:51;;;;;;;4.23;3.83;;;20.60;68.80;;;;;;4948959;28;20475;-71
2022/05/15 07:46:21;;;;;;;4.73;4.23;;;20.60;68.80;;;;;;4949913;29;20428;-71
2022/05/15 07:48:47;;;;;;;3.40;3.10;;;20.60;68.90;;;;;;4950838;28;20212;-71
2022/05/15 07:51:16;;;;;;;4.83;3.67;;;20.70;69.20;;;;;;4951263;28;20552;-70
2022/05/15 07:53:42;;;;;;;3.93;3.50;;;20.70;69.20;;;;;;4937372;29;20411;-70
2022/05/15 07:56:13;;;;;;;5.00;3.93;;;20.70;69.20;;;;;;4937730;29;20411;-70
2022/05/15 07:58:43;;;;;;;4.10;3.50;;;20.70;69.20;;;;;;4951758;29;20481;-71
2022/05/15 08:01:11;;;;;;;7.20;4.20;;;20.80;69.70;;;;;;4951846;29;20427;-71
2022/05/15 08:03:43;;;;;;;5.37;4.13;;;20.80;70.10;;;;;;4937108;29;20403;-71
2022/05/15 08:08:59;;;;;;;5.67;4.33;;;20.80;69.90;;;;;;4950943;29;20468;-71
2022/05/15 08:11:28;;;;;;;5.03;3.90;;;20.80;70.00;;;;;;4955142;29;20437;-71
2022/05/15 08:13:57;;;;;;;4.50;3.60;;;20.80;70.00;;;;;;4955145;29;20426;-71
2022/05/15 08:16:24;;;;;;;7.40;4.43;;;20.80;70.00;;;;;;4956041;28;20504;-71
2022/05/15 08:24:27;;;;;;;6.50;4.17;;;20.90;70.10;;;;;;4969708;28;20434;-71
2022/05/15 08:26:54;;;;;;;5.13;4.30;;;20.90;70.20;;;;;;4955995;29;20428;-72
2022/05/15 08:29:22;;;;;;;9.03;5.93;;;20.90;70.00;;;;;;4967488;28;20462;-72
2022/05/15 08:31:50;;;;;;;4.70;3.90;;;21.00;70.00;;;;;;4973813;28;20435;-72
2022/05/15 08:34:19;;;;;;;5.97;4.30;;;21.00;69.80;;;;;;4970907;28;20949;-71
2022/05/15 08:36:49;;;;;;;7.23;4.23;;;21.00;69.70;;;;;;4976601;28;20435;-71
2022/05/15 08:39:17;;;;;;;7.57;4.10;;;21.10;69.70;;;;;;4950983;29;20528;-73
2022/05/15 08:41:46;;;;;;;7.03;4.20;;;21.10;69.60;;;;;;4954596;29;20429;-74
2022/05/15 08:44:21;;;;;;;7.10;4.03;;;21.10;69.50;;;;;;4970808;28;20522;-72
2022/05/15 08:47:38;;;;;;;5.00;2.90;;;21.20;69.60;;;;;;4986699;28;20478;-77
2022/05/15 08:50:10;;;;;;;13.20;3.70;;;21.20;68.90;;;;;;4918285;29;20459;-72
2022/05/15 08:52:57;;;;;;;15.13;4.07;;;21.40;70.70;;;;;;4917871;29;20444;-72
2022/05/15 08:55:35;;;;;;;10.83;4.03;;;21.50;71.10;;;;;;4918387;29;20446;-72
2022/05/15 08:58:05;;;;;;;11.10;3.70;;;21.60;69.70;;;;;;4934715;29;21043;-72
2022/05/15 09:00:33;;;;;;;9.90;4.10;;;21.60;68.10;;;;;;4935932;29;20416;-73
2022/05/15 09:03:15;;;;;;;16.47;3.80;;;21.70;67.80;;;;;;4934205;29;20431;-73
2022/05/15 09:05:52;;;;;;;10.30;4.60;;;21.80;68.00;;;;;;4930863;29;20428;-73
2022/05/15 09:08:52;;;;;;;6.80;3.30;;;21.80;67.90;;;;;;4918948;29;20478;-72
2022/05/15 09:11:50;;;;;;;10.20;3.93;;;21.90;68.00;;;;;;4933930;29;20999;-72
2022/05/15 09:14:54;;;;;;;7.23;3.43;;;21.90;68.00;;;;;;4917647;29;20444;-73
2022/05/15 09:17:31;;;;;;;8.33;3.33;;;21.90;68.00;;;;;;4933599;29;20438;-73
2022/05/15 09:20:01;;;;;;;10.83;4.00;;;21.90;68.00;;;;;;4936427;29;20957;-73
2022/05/15 09:22:35;;;;;;;9.60;3.73;;;21.90;68.10;;;;;;4970898;28;20419;-73
2022/05/15 09:25:19;;;;;;;8.13;3.47;;;21.90;68.10;;;;;;4953528;29;20479;-73
2022/05/15 09:28:06;;;;;;;5.70;3.60;;;22.00;68.40;;;;;;4953501;28;20459;-73
2022/05/15 09:30:42;;;;;;;7.33;3.33;;;22.00;68.40;;;;;;4940055;29;20443;-73
2022/05/15 09:33:24;;;;;;;4.30;3.40;;;22.00;68.40;;;;;;4954518;28;20423;-72
2022/05/15 09:35:50;;;;;;;6.73;3.30;;;22.00;68.50;;;;;;4954194;28;20549;-72
2022/05/15 09:38:28;;;;;;;6.73;4.00;;;22.00;68.40;;;;;;4953741;28;20466;-71
2022/05/15 09:44:06;;;;;;;5.87;3.37;;;22.10;68.40;;;;;;4953618;29;20790;-73
2022/05/15 09:46:39;;;;;;;7.43;3.80;;;22.10;68.30;;;;;;4953876;28;20414;-73
2022/05/15 09:49:18;;;;;;;7.00;3.50;;;22.10;68.20;;;;;;4997202;23;20492;-89
2022/05/15 09:51:53;;;;;;;7.37;3.77;;;22.20;68.30;;;;;;4980100;28;20420;-88
2022/05/15 09:54:36;;;;;;;3.83;3.13;;;22.20;68.00;;;;;;4961754;28;20445;-88
2022/05/15 09:57:09;;;;;;;5.33;3.30;;;22.20;68.00;;;;;;4968498;28;20482;-88
2022/05/15 09:59:35;;;;;;;4.80;3.20;;;22.30;67.90;;;;;;4958574;28;20427;-88
2022/05/15 10:02:04;;;;;;;5.23;2.93;;;22.30;67.70;;;;;;4960104;28;20448;-88
2022/05/15 10:04:37;;;;;;;6.00;3.70;;;22.30;67.60;;;;;;4971583;28;20496;-88
2022/05/15 10:07:06;;;;;;;5.40;2.77;;;22.40;67.50;;;;;;4986053;28;21049;-90
2022/05/15 10:09:40;;;;;;;3.33;3.03;;;22.40;67.30;;;;;;4990944;28;20524;-92
2022/05/15 10:12:23;;;;;;;3.87;2.70;;;22.40;67.00;;;;;;4960713;28;20464;-92
2022/05/15 10:14:55;;;;;;;3.43;2.70;;;22.50;66.90;;;;;;4976959;28;20464;-91
2022/05/15 10:17:23;;;;;;;4.97;3.10;;;22.60;66.90;;;;;;4976435;28;20464;-91
2022/05/15 10:19:57;;;;;;;10.43;3.30;;;22.60;66.70;;;;;;4944595;28;20509;-88
2022/05/15 10:22:52;;;;;;;8.37;3.10;;;22.60;66.50;;;;;;4975338;28;20429;-90
2022/05/15 10:25:47;;;;;;;3.93;2.77;;;22.70;66.50;;;;;;4995522;28;20847;-90
2022/05/15 10:28:29;;;;;;;3.30;2.87;;;22.70;66.40;;;;;;4993937;28;20463;-92
2022/05/15 10:31:04;;;;;;;3.90;2.97;;;22.70;66.30;;;;;;4963513;28;20544;-92
2022/05/15 10:33:39;;;;;;;5.90;2.83;;;22.80;66.40;;;;;;4976773;28;20472;-90
2022/05/15 10:37:03;;;;;;;3.80;2.90;;;22.80;66.20;;;;;;4946503;28;20430;-90
2022/05/15 10:39:49;;;;;;;3.77;2.80;;;22.90;66.10;;;;;;4956397;29;20505;-90
2022/05/15 10:42:40;;;;;;;5.70;3.43;;;22.90;65.90;;;;;;4956274;29;20446;-91
2022/05/15 10:45:25;;;;;;;8.80;3.10;;;23.00;66.00;;;;;;4992621;28;20499;-91
2022/05/15 10:48:16;;;;;;;7.20;3.10;;;23.00;65.90;;;;;;4984111;28;20468;-91
2022/05/15 10:51:04;;;;;;;5.13;3.10;;;23.10;65.90;;;;;;4976622;28;20438;-89
2022/05/15 11:00:05;;;;;;;3.80;3.20;;;23.20;65.50;;;;;;4960272;28;20492;-87
2022/05/15 11:02:34;;;;;;;4.77;3.30;;;23.20;65.30;;;;;;4985825;28;20437;-89
2022/05/15 11:05:28;;;;;;;4.37;3.00;;;23.30;65.40;;;;;;4967019;28;20481;-89
2022/05/15 11:08:05;;;;;;;5.20;3.40;;;23.30;65.30;;;;;;4950021;28;20774;-92
2022/05/15 11:10:57;;;;;;;3.97;2.80;;;23.30;65.20;;;;;;4963706;28;20444;-91
2022/05/15 11:13:35;;;;;;;3.60;3.10;;;23.40;65.10;;;;;;4980028;28;20414;-91
2022/05/15 11:16:10;;;;;;;4.23;3.20;;;23.40;64.70;;;;;;4979123;28;20459;-90
2022/05/15 11:19:08;;;;;;;3.43;2.97;;;23.50;64.80;;;;;;4978054;28;20483;-90
2022/05/15 11:21:51;;;;;;;5.77;3.17;;;23.50;64.70;;;;;;4959589;28;20426;-88
2022/05/15 11:24:38;;;;;;;8.60;3.63;;;23.60;64.70;;;;;;4992414;28;20430;-89
2022/05/15 11:27:26;;;;;;;7.70;4.50;;;23.60;64.50;;;;;;4977772;28;20432;-88
2022/05/15 11:30:45;;;;;;;3.03;2.70;;;23.70;64.60;;;;;;4998913;28;20412;-89
2022/05/15 11:33:31;;;;;;;4.00;3.17;;;23.70;64.30;;;;;;4997284;28;20747;-90
2022/05/15 11:36:26;;;;;;;4.57;3.07;;;23.70;64.40;;;;;;4999007;28;20492;-89
2022/05/15 11:39:13;;;;;;;5.33;3.63;;;23.80;64.40;;;;;;4982213;28;20946;-89
2022/05/15 11:41:38;;;;;;;3.97;2.90;;;23.90;64.50;;;;;;4982636;28;20439;-88
2022/05/15 11:44:10;;;;;;;5.93;3.80;;;23.90;64.30;;;;;;4998565;28;20462;-90
2022/05/15 11:46:45;;;;;;;3.60;3.30;;;23.90;65.00;;;;;;4989611;28;20422;-89
2022/05/15 11:49:13;;;;;;;4.03;3.27;;;24.00;64.00;;;;;;4962769;28;20460;-88
2022/05/15 11:51:42;;;;;;;3.93;3.47;;;24.00;63.80;;;;;;4965602;28;20573;-89
2022/05/15 11:54:13;;;;;;;6.20;2.93;;;24.00;63.80;;;;;;4997995;28;20437;-89
2022/05/15 11:56:51;;;;;;;4.80;3.47;;;24.10;63.70;;;;;;4962997;28;20912;-89
2022/05/15 11:59:54;;;;;;;3.53;3.00;;;24.10;63.40;;;;;;4990484;28;20453;-89
2022/05/15 12:02:29;;;;;;;4.87;3.00;;;24.20;63.30;;;;;;4990023;28;20533;-89
2022/05/15 12:05:23;;;;;;;7.20;3.30;;;24.20;63.20;;;;;;4998300;28;20466;-89
2022/05/15 12:08:07;;;;;;;4.40;3.10;;;24.20;63.20;;;;;;4993513;28;20835;-88
2022/05/15 12:10:32;;;;;;;7.30;3.40;;;24.30;63.30;;;;;;4965854;28;20446;-88
2022/05/15 12:13:07;;;;;;;5.10;3.07;;;24.30;63.30;;;;;;4982039;28;20438;-89
2022/05/15 12:15:40;;;;;;;5.20;3.43;;;24.40;63.40;;;;;;4996090;28;20292;-90
2022/05/15 12:18:32;;;;;;;4.70;3.10;;;24.40;63.20;;;;;;4946557;28;20476;-88
2022/05/15 12:21:00;;;;;;;4.40;2.90;;;24.50;63.10;;;;;;4965306;28;20457;-90
2022/05/15 12:24:26;;;;;;;6.17;3.30;;;24.50;62.70;;;;;;4981983;28;20449;-90
2022/05/15 12:26:45;;;;;;;5.83;3.97;;;24.50;62.40;;;;;;4998206;28;20414;-89
2022/05/15 12:29:36;;;;;;;3.17;2.87;;;24.60;62.30;;;;;;4978212;28;20422;-88
2022/05/15 12:32:17;;;;;;;7.20;3.60;;;24.60;62.40;;;;;;4982121;28;20440;-89
2022/05/15 12:34:49;;;;;;;3.40;3.10;;;24.70;62.50;;;;;;4980497;28;20453;-89
2022/05/15 12:37:31;;;;;;;3.90;3.50;;;24.70;62.50;;;;;;4961726;28;20488;-89
2022/05/15 12:39:59;;;;;;;4.73;2.90;;;24.70;62.40;;;;;;4978098;28;20510;-89
2022/05/15 12:42:36;;;;;;;4.80;3.53;;;24.80;62.30;;;;;;4994053;28;20809;-89
2022/05/15 12:45:10;;;;;;;4.13;3.40;;;24.80;62.30;;;;;;4981530;28;20425;-89
2022/05/15 12:47:40;;;;;;;4.30;3.27;;;24.80;62.30;;;;;;4964629;28;20434;-90
2022/05/15 12:50:09;;;;;;;4.43;2.93;;;24.80;62.30;;;;;;4945960;28;20788;-90
2022/05/15 12:52:35;;;;;;;2.90;2.70;;;24.90;62.40;;;;;;4967278;28;20477;-90
2022/05/15 12:55:07;;;;;;;4.73;2.97;;;24.90;62.40;;;;;;4997436;28;20461;-88
2022/05/15 12:57:45;;;;;;;3.60;2.93;;;25.00;62.40;;;;;;4977206;28;20256;-89
2022/05/15 13:00:19;;;;;;;4.07;3.00;;;25.00;62.40;;;;;;4971454;28;20421;-90
2022/05/15 13:02:47;;;;;;;5.87;3.30;;;25.10;62.60;;;;;;4966161;28;20453;-90
2022/05/15 13:05:52;;;;;;;4.30;3.40;;;25.10;62.50;;;;;;4978413;28;20441;-89
2022/05/15 13:08:18;;;;;;;3.87;3.50;;;25.10;62.40;;;;;;4969141;28;20901;-90
2022/05/15 13:10:55;;;;;;;6.33;3.17;;;25.20;62.50;;;;;;4978033;28;20468;-89
2022/05/15 13:13:31;;;;;;;4.77;3.53;;;25.20;62.60;;;;;;4993488;28;20437;-90
2022/05/15 13:16:00;;;;;;;4.67;2.80;;;25.30;62.50;;;;;;4997669;28;20436;-90
2022/05/15 13:18:31;;;;;;;5.50;3.20;;;25.30;62.20;;;;;;4964959;28;20458;-92
2022/05/15 13:21:01;;;;;;;4.53;3.57;;;25.30;62.00;;;;;;4977784;28;20418;-91
2022/05/15 13:23:39;;;;;;;6.83;3.70;;;25.40;61.60;;;;;;4977890;28;20453;-91
2022/05/15 13:26:34;;;;;;;6.53;3.50;;;25.40;61.40;;;;;;4978726;28;20410;-91
2022/05/15 13:29:01;;;;;;;6.10;3.70;;;25.50;61.50;;;;;;4961699;28;20519;-91
2022/05/15 13:31:29;;;;;;;7.70;3.80;;;25.50;61.60;;;;;;4977581;28;20507;-92
2022/05/15 13:33:56;;;;;;;5.17;3.73;;;25.60;61.70;;;;;;4977568;28;20430;-91
2022/05/15 13:36:22;;;;;;;4.23;3.63;;;25.60;61.80;;;;;;4981768;28;20463;-89